sensor_id;sensor_type;location;lat;lon;timestamp;P1;durP1;ratioP1;P2;durP2;ratioP2
68583;SDS011;55557;49.220;11.150;2022-10-17T00:01:39;4.67;;;2.77;;
68583;SDS011;55557;49.220;11.150;2022-10-17T00:04:05;5.60;;;2.70;;
68583;SDS011;55557;49.220;11.150;2022-10-17T00:06:31;3.40;;;2.37;;
68583;SDS011;55557;49.220;11.150;2022-10-17T00:08:57;7.77;;;2.53;;
68583;SDS011;55557;49.220;11.150;2022-10-17T00:11:23;12.50;;;2.90;;
68583;SDS011;55557;49.220;11.150;2022-10-17T00:13:50;9.80;;;3.13;;
68583;SDS011;55557;49.220;11.150;2022-10-17T00:16:26;6.07;;;2.63;;
68583;SDS011;55557;49.220;11.150;2022-10-17T00:18:53;11.60;;;3.37;;
68583;SDS011;55557;49.220;11.150;2022-10-17T00:21:19;5.50;;;3.53;;
68583;SDS011;55557;49.220;11.150;2022-10-17T00:23:46;6.40;;;3.13;;
68583;SDS011;55557;49.220;11.150;2022-10-17T00:26:12;4.03;;;3.03;;
68583;SDS011;55557;49.220;11.150;2022-10-17T00:28:39;7.07;;;3.37;;
68583;SDS011;55557;49.220;11.150;2022-10-17T00:31:05;4.70;;;3.50;;
68583;SDS011;55557;49.220;11.150;2022-10-17T00:33:32;7.07;;;3.17;;
68583;SDS011;55557;49.220;11.150;2022-10-17T00:36:05;7.20;;;3.00;;
68583;SDS011;55557;49.220;11.150;2022-10-17T00:38:32;2.97;;;2.70;;
68583;SDS011;55557;49.220;11.150;2022-10-17T00:40:58;8.73;;;3.53;;
68583;SDS011;55557;49.220;11.150;2022-10-17T00:43:24;3.80;;;2.93;;
68583;SDS011;55557;49.220;11.150;2022-10-17T00:45:50;7.27;;;3.17;;
68583;SDS011;55557;49.220;11.150;2022-10-17T00:48:17;12.30;;;3.20;;
68583;SDS011;55557;49.220;11.150;2022-10-17T00:50:44;4.07;;;2.30;;
68583;SDS011;55557;49.220;11.150;2022-10-17T00:53:12;10.03;;;2.50;;
68583;SDS011;55557;49.220;11.150;2022-10-17T00:55:48;2.87;;;2.17;;
68583;SDS011;55557;49.220;11.150;2022-10-17T00:58:15;5.80;;;2.30;;
68583;SDS011;55557;49.220;11.150;2022-10-17T01:00:42;8.10;;;1.80;;
68583;SDS011;55557;49.220;11.150;2022-10-17T01:03:08;5.60;;;1.90;;
68583;SDS011;55557;49.220;11.150;2022-10-17T01:08:38;6.60;;;2.50;;
68583;SDS011;55557;49.220;11.150;2022-10-17T01:13:36;3.53;;;2.13;;
68583;SDS011;55557;49.220;11.150;2022-10-17T01:16:15;7.77;;;2.43;;
68583;SDS011;55557;49.220;11.150;2022-10-17T01:21:29;6.30;;;2.17;;
68583;SDS011;55557;49.220;11.150;2022-10-17T01:32:00;5.13;;;2.10;;
68583;SDS011;55557;49.220;11.150;2022-10-17T01:34:30;4.10;;;2.10;;
68583;SDS011;55557;49.220;11.150;2022-10-17T01:42:12;17.00;;;2.13;;
68583;SDS011;55557;49.220;11.150;2022-10-17T01:47:20;4.57;;;2.30;;
68583;SDS011;55557;49.220;11.150;2022-10-17T01:49:48;4.23;;;2.47;;
68583;SDS011;55557;49.220;11.150;2022-10-17T01:52:24;5.53;;;2.30;;
68583;SDS011;55557;49.220;11.150;2022-10-17T01:55:12;6.43;;;1.90;;
68583;SDS011;55557;49.220;11.150;2022-10-17T01:57:40;4.37;;;1.70;;
68583;SDS011;55557;49.220;11.150;2022-10-17T02:00:08;5.03;;;1.77;;
68583;SDS011;55557;49.220;11.150;2022-10-17T02:02:55;2.23;;;1.90;;
68583;SDS011;55557;49.220;11.150;2022-10-17T02:05:31;8.63;;;1.93;;
68583;SDS011;55557;49.220;11.150;2022-10-17T02:07:58;3.80;;;1.80;;
68583;SDS011;55557;49.220;11.150;2022-10-17T02:10:29;9.50;;;2.00;;
68583;SDS011;55557;49.220;11.150;2022-10-17T02:13:08;5.67;;;1.60;;
68583;SDS011;55557;49.220;11.150;2022-10-17T02:20:54;9.83;;;1.90;;
68583;SDS011;55557;49.220;11.150;2022-10-17T02:23:30;7.50;;;2.17;;
68583;SDS011;55557;49.220;11.150;2022-10-17T02:26:08;5.77;;;2.30;;
68583;SDS011;55557;49.220;11.150;2022-10-17T02:31:40;6.57;;;2.00;;
68583;SDS011;55557;49.220;11.150;2022-10-17T02:34:18;2.80;;;2.00;;
68583;SDS011;55557;49.220;11.150;2022-10-17T02:36:55;7.33;;;2.33;;
68583;SDS011;55557;49.220;11.150;2022-10-17T02:39:24;7.03;;;2.27;;
68583;SDS011;55557;49.220;11.150;2022-10-17T02:41:59;9.07;;;1.80;;
68583;SDS011;55557;49.220;11.150;2022-10-17T02:44:25;8.70;;;2.10;;
68583;SDS011;55557;49.220;11.150;2022-10-17T02:47:04;4.03;;;1.90;;
68583;SDS011;55557;49.220;11.150;2022-10-17T02:49:33;12.17;;;2.30;;
68583;SDS011;55557;49.220;11.150;2022-10-17T02:52:09;4.23;;;2.30;;
68583;SDS011;55557;49.220;11.150;2022-10-17T02:54:42;6.60;;;2.00;;
68583;SDS011;55557;49.220;11.150;2022-10-17T02:57:35;2.33;;;1.67;;
68583;SDS011;55557;49.220;11.150;2022-10-17T03:00:00;2.97;;;1.80;;
68583;SDS011;55557;49.220;11.150;2022-10-17T03:02:27;10.77;;;2.23;;
68583;SDS011;55557;49.220;11.150;2022-10-17T03:04:53;7.23;;;1.67;;
68583;SDS011;55557;49.220;11.150;2022-10-17T03:07:20;11.90;;;2.10;;
68583;SDS011;55557;49.220;11.150;2022-10-17T03:09:46;5.13;;;1.97;;
68583;SDS011;55557;49.220;11.150;2022-10-17T03:12:12;4.43;;;1.60;;
68583;SDS011;55557;49.220;11.150;2022-10-17T03:14:38;5.97;;;2.07;;
68583;SDS011;55557;49.220;11.150;2022-10-17T03:17:04;3.47;;;1.93;;
68583;SDS011;55557;49.220;11.150;2022-10-17T03:19:30;4.23;;;2.20;;
68583;SDS011;55557;49.220;11.150;2022-10-17T03:21:56;7.97;;;1.87;;
68583;SDS011;55557;49.220;11.150;2022-10-17T03:24:22;2.57;;;1.70;;
68583;SDS011;55557;49.220;11.150;2022-10-17T03:26:48;11.00;;;2.10;;
68583;SDS011;55557;49.220;11.150;2022-10-17T03:29:14;8.77;;;1.97;;
68583;SDS011;55557;49.220;11.150;2022-10-17T03:31:40;8.93;;;2.37;;
68583;SDS011;55557;49.220;11.150;2022-10-17T03:34:06;6.23;;;1.80;;
68583;SDS011;55557;49.220;11.150;2022-10-17T03:36:32;5.27;;;2.10;;
68583;SDS011;55557;49.220;11.150;2022-10-17T03:38:58;7.07;;;1.60;;
68583;SDS011;55557;49.220;11.150;2022-10-17T03:41:24;15.03;;;3.47;;
68583;SDS011;55557;49.220;11.150;2022-10-17T03:43:51;4.30;;;2.07;;
68583;SDS011;55557;49.220;11.150;2022-10-17T03:46:18;2.30;;;1.50;;
68583;SDS011;55557;49.220;11.150;2022-10-17T03:48:44;11.30;;;2.10;;
68583;SDS011;55557;49.220;11.150;2022-10-17T03:51:10;4.03;;;2.03;;
68583;SDS011;55557;49.220;11.150;2022-10-17T03:53:36;2.97;;;1.83;;
68583;SDS011;55557;49.220;11.150;2022-10-17T03:56:09;5.00;;;1.90;;
68583;SDS011;55557;49.220;11.150;2022-10-17T03:58:36;4.90;;;2.50;;
68583;SDS011;55557;49.220;11.150;2022-10-17T04:01:03;5.97;;;2.17;;
68583;SDS011;55557;49.220;11.150;2022-10-17T04:03:29;8.93;;;1.83;;
68583;SDS011;55557;49.220;11.150;2022-10-17T04:05:57;3.53;;;2.03;;
68583;SDS011;55557;49.220;11.150;2022-10-17T04:08:25;6.83;;;2.00;;
68583;SDS011;55557;49.220;11.150;2022-10-17T04:10:51;4.07;;;1.93;;
68583;SDS011;55557;49.220;11.150;2022-10-17T04:13:17;5.27;;;1.70;;
68583;SDS011;55557;49.220;11.150;2022-10-17T04:16:03;4.67;;;2.23;;
68583;SDS011;55557;49.220;11.150;2022-10-17T04:18:30;3.60;;;1.73;;
68583;SDS011;55557;49.220;11.150;2022-10-17T04:20:56;3.17;;;2.17;;
68583;SDS011;55557;49.220;11.150;2022-10-17T04:23:22;6.30;;;2.20;;
68583;SDS011;55557;49.220;11.150;2022-10-17T04:25:52;8.40;;;2.67;;
68583;SDS011;55557;49.220;11.150;2022-10-17T04:28:20;6.97;;;2.33;;
68583;SDS011;55557;49.220;11.150;2022-10-17T04:30:46;2.33;;;1.80;;
68583;SDS011;55557;49.220;11.150;2022-10-17T04:33:12;7.83;;;2.00;;
68583;SDS011;55557;49.220;11.150;2022-10-17T04:35:39;3.97;;;2.30;;
68583;SDS011;55557;49.220;11.150;2022-10-17T04:38:05;7.30;;;2.00;;
68583;SDS011;55557;49.220;11.150;2022-10-17T04:40:31;2.33;;;1.90;;
68583;SDS011;55557;49.220;11.150;2022-10-17T04:42:57;6.63;;;2.07;;
68583;SDS011;55557;49.220;11.150;2022-10-17T04:45:23;7.77;;;2.43;;
68583;SDS011;55557;49.220;11.150;2022-10-17T04:47:49;7.23;;;1.93;;
68583;SDS011;55557;49.220;11.150;2022-10-17T04:50:15;3.13;;;2.17;;
68583;SDS011;55557;49.220;11.150;2022-10-17T04:52:41;4.93;;;2.07;;
68583;SDS011;55557;49.220;11.150;2022-10-17T04:55:07;15.40;;;1.80;;
68583;SDS011;55557;49.220;11.150;2022-10-17T04:57:33;7.00;;;1.87;;
68583;SDS011;55557;49.220;11.150;2022-10-17T05:00:00;4.03;;;1.87;;
68583;SDS011;55557;49.220;11.150;2022-10-17T05:02:26;4.93;;;1.93;;
68583;SDS011;55557;49.220;11.150;2022-10-17T05:04:52;3.07;;;1.90;;
68583;SDS011;55557;49.220;11.150;2022-10-17T05:07:18;1.67;;;1.57;;
68583;SDS011;55557;49.220;11.150;2022-10-17T05:09:44;3.10;;;1.77;;
68583;SDS011;55557;49.220;11.150;2022-10-17T05:12:10;6.43;;;1.57;;
68583;SDS011;55557;49.220;11.150;2022-10-17T05:14:36;2.17;;;1.67;;
68583;SDS011;55557;49.220;11.150;2022-10-17T05:17:02;5.37;;;1.93;;
68583;SDS011;55557;49.220;11.150;2022-10-17T05:19:28;6.33;;;1.70;;
68583;SDS011;55557;49.220;11.150;2022-10-17T05:21:54;4.67;;;1.73;;
68583;SDS011;55557;49.220;11.150;2022-10-17T05:24:20;6.53;;;2.20;;
68583;SDS011;55557;49.220;11.150;2022-10-17T05:26:48;4.83;;;2.33;;
68583;SDS011;55557;49.220;11.150;2022-10-17T05:29:15;6.07;;;2.30;;
68583;SDS011;55557;49.220;11.150;2022-10-17T05:31:42;9.93;;;2.57;;
68583;SDS011;55557;49.220;11.150;2022-10-17T05:34:08;3.43;;;2.03;;
68583;SDS011;55557;49.220;11.150;2022-10-17T05:36:34;3.33;;;2.00;;
68583;SDS011;55557;49.220;11.150;2022-10-17T05:39:00;7.40;;;2.37;;
68583;SDS011;55557;49.220;11.150;2022-10-17T05:41:26;2.50;;;2.07;;
68583;SDS011;55557;49.220;11.150;2022-10-17T05:43:52;2.73;;;2.13;;
68583;SDS011;55557;49.220;11.150;2022-10-17T05:46:18;7.27;;;2.17;;
68583;SDS011;55557;49.220;11.150;2022-10-17T05:48:45;2.23;;;1.90;;
68583;SDS011;55557;49.220;11.150;2022-10-17T05:51:11;4.07;;;2.17;;
68583;SDS011;55557;49.220;11.150;2022-10-17T05:53:38;5.40;;;1.77;;
68583;SDS011;55557;49.220;11.150;2022-10-17T05:56:23;6.60;;;2.10;;
68583;SDS011;55557;49.220;11.150;2022-10-17T05:58:49;7.50;;;2.33;;
68583;SDS011;55557;49.220;11.150;2022-10-17T06:01:15;7.00;;;1.70;;
68583;SDS011;55557;49.220;11.150;2022-10-17T06:03:42;8.17;;;2.17;;
68583;SDS011;55557;49.220;11.150;2022-10-17T06:06:09;6.87;;;2.30;;
68583;SDS011;55557;49.220;11.150;2022-10-17T06:08:42;4.13;;;1.90;;
68583;SDS011;55557;49.220;11.150;2022-10-17T06:11:09;5.10;;;1.93;;
68583;SDS011;55557;49.220;11.150;2022-10-17T06:13:35;1.87;;;1.63;;
68583;SDS011;55557;49.220;11.150;2022-10-17T06:16:01;6.80;;;2.97;;
68583;SDS011;55557;49.220;11.150;2022-10-17T06:18:27;6.50;;;2.20;;
68583;SDS011;55557;49.220;11.150;2022-10-17T06:20:54;4.53;;;2.23;;
68583;SDS011;55557;49.220;11.150;2022-10-17T06:23:34;3.23;;;2.70;;
68583;SDS011;55557;49.220;11.150;2022-10-17T06:26:00;11.13;;;2.60;;
68583;SDS011;55557;49.220;11.150;2022-10-17T06:28:26;10.93;;;3.40;;
68583;SDS011;55557;49.220;11.150;2022-10-17T06:30:52;10.25;;;2.97;;
68583;SDS011;55557;49.220;11.150;2022-10-17T06:33:18;8.10;;;2.70;;
68583;SDS011;55557;49.220;11.150;2022-10-17T06:35:52;4.10;;;2.40;;
68583;SDS011;55557;49.220;11.150;2022-10-17T06:38:18;7.23;;;2.13;;
68583;SDS011;55557;49.220;11.150;2022-10-17T06:40:44;3.73;;;2.43;;
68583;SDS011;55557;49.220;11.150;2022-10-17T06:43:10;6.70;;;2.60;;
68583;SDS011;55557;49.220;11.150;2022-10-17T06:45:39;10.90;;;2.70;;
68583;SDS011;55557;49.220;11.150;2022-10-17T06:48:06;8.63;;;2.40;;
68583;SDS011;55557;49.220;11.150;2022-10-17T06:50:32;6.97;;;2.37;;
68583;SDS011;55557;49.220;11.150;2022-10-17T06:52:58;4.50;;;2.43;;
68583;SDS011;55557;49.220;11.150;2022-10-17T06:55:24;3.23;;;2.60;;
68583;SDS011;55557;49.220;11.150;2022-10-17T06:57:52;7.33;;;2.60;;
68583;SDS011;55557;49.220;11.150;2022-10-17T07:00:19;5.43;;;2.30;;
68583;SDS011;55557;49.220;11.150;2022-10-17T07:02:45;4.17;;;2.33;;
68583;SDS011;55557;49.220;11.150;2022-10-17T07:05:11;3.30;;;2.17;;
68583;SDS011;55557;49.220;11.150;2022-10-17T07:07:37;3.90;;;2.40;;
68583;SDS011;55557;49.220;11.150;2022-10-17T07:10:03;5.20;;;2.00;;
68583;SDS011;55557;49.220;11.150;2022-10-17T07:12:35;7.77;;;2.10;;
68583;SDS011;55557;49.220;11.150;2022-10-17T07:15:02;5.33;;;2.70;;
68583;SDS011;55557;49.220;11.150;2022-10-17T07:17:29;4.40;;;1.80;;
68583;SDS011;55557;49.220;11.150;2022-10-17T07:19:55;3.17;;;1.83;;
68583;SDS011;55557;49.220;11.150;2022-10-17T07:22:21;4.97;;;2.37;;
68583;SDS011;55557;49.220;11.150;2022-10-17T07:24:47;13.13;;;2.30;;
68583;SDS011;55557;49.220;11.150;2022-10-17T07:27:13;8.40;;;2.10;;
68583;SDS011;55557;49.220;11.150;2022-10-17T07:29:39;2.90;;;2.27;;
68583;SDS011;55557;49.220;11.150;2022-10-17T07:32:05;7.77;;;2.20;;
68583;SDS011;55557;49.220;11.150;2022-10-17T07:34:39;14.13;;;2.40;;
68583;SDS011;55557;49.220;11.150;2022-10-17T07:37:05;5.03;;;2.23;;
68583;SDS011;55557;49.220;11.150;2022-10-17T07:39:33;6.63;;;1.97;;
68583;SDS011;55557;49.220;11.150;2022-10-17T07:41:59;3.10;;;2.40;;
68583;SDS011;55557;49.220;11.150;2022-10-17T07:44:25;8.80;;;2.20;;
68583;SDS011;55557;49.220;11.150;2022-10-17T07:46:51;9.30;;;2.63;;
68583;SDS011;55557;49.220;11.150;2022-10-17T07:49:17;3.40;;;2.10;;
68583;SDS011;55557;49.220;11.150;2022-10-17T07:51:43;9.33;;;2.30;;
68583;SDS011;55557;49.220;11.150;2022-10-17T07:54:09;7.90;;;2.40;;
68583;SDS011;55557;49.220;11.150;2022-10-17T07:56:36;16.10;;;4.10;;
68583;SDS011;55557;49.220;11.150;2022-10-17T07:59:02;5.90;;;2.63;;
68583;SDS011;55557;49.220;11.150;2022-10-17T08:01:28;4.30;;;2.60;;
68583;SDS011;55557;49.220;11.150;2022-10-17T08:03:54;7.20;;;3.60;;
68583;SDS011;55557;49.220;11.150;2022-10-17T08:06:20;9.07;;;3.70;;
68583;SDS011;55557;49.220;11.150;2022-10-17T08:08:46;13.03;;;4.03;;
68583;SDS011;55557;49.220;11.150;2022-10-17T08:11:12;6.50;;;3.37;;
68583;SDS011;55557;49.220;11.150;2022-10-17T08:13:39;7.33;;;3.97;;
68583;SDS011;55557;49.220;11.150;2022-10-17T08:16:06;7.03;;;3.93;;
68583;SDS011;55557;49.220;11.150;2022-10-17T08:18:33;5.70;;;3.50;;
68583;SDS011;55557;49.220;11.150;2022-10-17T08:21:00;6.77;;;4.23;;
68583;SDS011;55557;49.220;11.150;2022-10-17T08:23:26;5.37;;;3.90;;
68583;SDS011;55557;49.220;11.150;2022-10-17T08:25:53;7.03;;;4.10;;
68583;SDS011;55557;49.220;11.150;2022-10-17T08:28:19;8.70;;;3.97;;
68583;SDS011;55557;49.220;11.150;2022-10-17T08:30:45;7.43;;;3.60;;
68583;SDS011;55557;49.220;11.150;2022-10-17T08:33:11;4.97;;;3.83;;
68583;SDS011;55557;49.220;11.150;2022-10-17T08:35:37;7.50;;;4.17;;
68583;SDS011;55557;49.220;11.150;2022-10-17T08:41:11;5.70;;;3.57;;
68583;SDS011;55557;49.220;11.150;2022-10-17T08:46:13;7.43;;;4.43;;
68583;SDS011;55557;49.220;11.150;2022-10-17T08:48:41;8.57;;;4.20;;
68583;SDS011;55557;49.220;11.150;2022-10-17T08:51:12;7.03;;;4.53;;
68583;SDS011;55557;49.220;11.150;2022-10-17T08:53:42;7.17;;;4.70;;
68583;SDS011;55557;49.220;11.150;2022-10-17T08:56:15;7.93;;;4.30;;
68583;SDS011;55557;49.220;11.150;2022-10-17T08:58:42;5.40;;;4.33;;
68583;SDS011;55557;49.220;11.150;2022-10-17T09:01:15;5.80;;;4.53;;
68583;SDS011;55557;49.220;11.150;2022-10-17T09:06:24;9.00;;;4.37;;
68583;SDS011;55557;49.220;11.150;2022-10-17T09:14:08;5.43;;;3.63;;
68583;SDS011;55557;49.220;11.150;2022-10-17T09:16:56;12.37;;;4.33;;
68583;SDS011;55557;49.220;11.150;2022-10-17T09:19:25;6.50;;;5.07;;
68583;SDS011;55557;49.220;11.150;2022-10-17T09:21:55;6.90;;;4.43;;
68583;SDS011;55557;49.220;11.150;2022-10-17T09:24:36;7.77;;;4.20;;
68583;SDS011;55557;49.220;11.150;2022-10-17T09:27:04;11.03;;;4.23;;
68583;SDS011;55557;49.220;11.150;2022-10-17T09:29:30;6.57;;;4.97;;
68583;SDS011;55557;49.220;11.150;2022-10-17T09:31:59;7.47;;;4.63;;
68583;SDS011;55557;49.220;11.150;2022-10-17T09:34:30;9.70;;;4.30;;
68583;SDS011;55557;49.220;11.150;2022-10-17T09:36:57;6.27;;;4.27;;
68583;SDS011;55557;49.220;11.150;2022-10-17T09:39:24;7.37;;;3.90;;
68583;SDS011;55557;49.220;11.150;2022-10-17T09:41:52;7.60;;;4.20;;
68583;SDS011;55557;49.220;11.150;2022-10-17T09:44:23;6.10;;;3.80;;
68583;SDS011;55557;49.220;11.150;2022-10-17T09:49:31;6.73;;;4.23;;
68583;SDS011;55557;49.220;11.150;2022-10-17T09:51:58;5.67;;;3.93;;
68583;SDS011;55557;49.220;11.150;2022-10-17T09:57:10;5.80;;;3.83;;
68583;SDS011;55557;49.220;11.150;2022-10-17T09:59:46;10.00;;;4.33;;
68583;SDS011;55557;49.220;11.150;2022-10-17T10:02:19;7.23;;;3.93;;
68583;SDS011;55557;49.220;11.150;2022-10-17T10:04:56;5.00;;;3.60;;
68583;SDS011;55557;49.220;11.150;2022-10-17T10:07:23;4.73;;;3.57;;
68583;SDS011;55557;49.220;11.150;2022-10-17T10:09:49;5.57;;;4.07;;
68583;SDS011;55557;49.220;11.150;2022-10-17T10:12:20;4.83;;;3.83;;
68583;SDS011;55557;49.220;11.150;2022-10-17T10:15:07;5.97;;;4.17;;
68583;SDS011;55557;49.220;11.150;2022-10-17T10:17:47;8.47;;;4.20;;
68583;SDS011;55557;49.220;11.150;2022-10-17T10:20:24;5.10;;;3.50;;
68583;SDS011;55557;49.220;11.150;2022-10-17T10:25:31;7.27;;;3.90;;
68583;SDS011;55557;49.220;11.150;2022-10-17T10:27:58;4.70;;;3.40;;
68583;SDS011;55557;49.220;11.150;2022-10-17T10:30:24;4.70;;;3.93;;
68583;SDS011;55557;49.220;11.150;2022-10-17T10:33:00;5.57;;;3.37;;
68583;SDS011;55557;49.220;11.150;2022-10-17T10:35:33;5.53;;;3.23;;
68583;SDS011;55557;49.220;11.150;2022-10-17T10:38:18;3.50;;;3.00;;
68583;SDS011;55557;49.220;11.150;2022-10-17T10:40:46;6.20;;;3.17;;
68583;SDS011;55557;49.220;11.150;2022-10-17T10:43:31;8.20;;;3.50;;
68583;SDS011;55557;49.220;11.150;2022-10-17T10:46:02;3.60;;;3.23;;
68583;SDS011;55557;49.220;11.150;2022-10-17T10:48:34;4.70;;;3.40;;
68583;SDS011;55557;49.220;11.150;2022-10-17T10:51:01;6.30;;;3.53;;
68583;SDS011;55557;49.220;11.150;2022-10-17T11:03:54;3.60;;;2.87;;
68583;SDS011;55557;49.220;11.150;2022-10-17T11:06:27;5.70;;;2.97;;
68583;SDS011;55557;49.220;11.150;2022-10-17T11:09:04;4.23;;;2.50;;
68583;SDS011;55557;49.220;11.150;2022-10-17T11:11:44;2.87;;;2.57;;
68583;SDS011;55557;49.220;11.150;2022-10-17T11:14:16;3.93;;;2.83;;
68583;SDS011;55557;49.220;11.150;2022-10-17T11:17:14;5.10;;;3.30;;
68583;SDS011;55557;49.220;11.150;2022-10-17T11:19:38;5.30;;;3.00;;
68583;SDS011;55557;49.220;11.150;2022-10-17T11:24:37;8.73;;;2.90;;
68583;SDS011;55557;49.220;11.150;2022-10-17T11:27:05;8.47;;;2.57;;
68583;SDS011;55557;49.220;11.150;2022-10-17T11:29:33;5.20;;;1.97;;
68583;SDS011;55557;49.220;11.150;2022-10-17T11:32:02;6.40;;;2.60;;
68583;SDS011;55557;49.220;11.150;2022-10-17T11:34:31;3.00;;;2.30;;
68583;SDS011;55557;49.220;11.150;2022-10-17T11:37:10;7.43;;;2.20;;
68583;SDS011;55557;49.220;11.150;2022-10-17T11:42:10;2.57;;;2.23;;
68583;SDS011;55557;49.220;11.150;2022-10-17T11:44:40;3.50;;;1.93;;
68583;SDS011;55557;49.220;11.150;2022-10-17T11:47:13;2.03;;;1.77;;
68583;SDS011;55557;49.220;11.150;2022-10-17T11:49:45;3.00;;;2.10;;
68583;SDS011;55557;49.220;11.150;2022-10-17T11:52:38;6.77;;;2.17;;
68583;SDS011;55557;49.220;11.150;2022-10-17T11:55:04;3.13;;;2.30;;
68583;SDS011;55557;49.220;11.150;2022-10-17T12:03:22;2.10;;;1.90;;
68583;SDS011;55557;49.220;11.150;2022-10-17T12:10:27;4.50;;;2.27;;
68583;SDS011;55557;49.220;11.150;2022-10-17T12:12:56;6.73;;;2.20;;
68583;SDS011;55557;49.220;11.150;2022-10-17T12:17:58;5.07;;;2.10;;
68583;SDS011;55557;49.220;11.150;2022-10-17T12:25:30;5.70;;;2.20;;
68583;SDS011;55557;49.220;11.150;2022-10-17T12:30:31;3.00;;;2.30;;
68583;SDS011;55557;49.220;11.150;2022-10-17T12:32:59;6.03;;;2.37;;
68583;SDS011;55557;49.220;11.150;2022-10-17T12:35:26;3.63;;;2.80;;
68583;SDS011;55557;49.220;11.150;2022-10-17T12:45:55;2.60;;;2.20;;
68583;SDS011;55557;49.220;11.150;2022-10-17T12:56:07;4.23;;;3.10;;
68583;SDS011;55557;49.220;11.150;2022-10-17T12:58:33;3.80;;;2.70;;
68583;SDS011;55557;49.220;11.150;2022-10-17T13:00:59;6.27;;;2.97;;
68583;SDS011;55557;49.220;11.150;2022-10-17T13:03:27;6.00;;;3.87;;
68583;SDS011;55557;49.220;11.150;2022-10-17T13:06:18;4.67;;;3.10;;
68583;SDS011;55557;49.220;11.150;2022-10-17T13:08:46;4.60;;;3.20;;
68583;SDS011;55557;49.220;11.150;2022-10-17T13:11:14;5.07;;;2.90;;
68583;SDS011;55557;49.220;11.150;2022-10-17T13:16:06;7.03;;;3.83;;
68583;SDS011;55557;49.220;11.150;2022-10-17T13:18:32;6.57;;;3.23;;
68583;SDS011;55557;49.220;11.150;2022-10-17T13:21:02;4.57;;;3.27;;
68583;SDS011;55557;49.220;11.150;2022-10-17T13:23:38;3.87;;;3.23;;
68583;SDS011;55557;49.220;11.150;2022-10-17T13:26:05;7.23;;;3.40;;
68583;SDS011;55557;49.220;11.150;2022-10-17T13:28:31;3.80;;;2.90;;
68583;SDS011;55557;49.220;11.150;2022-10-17T13:30:58;4.13;;;3.23;;
68583;SDS011;55557;49.220;11.150;2022-10-17T13:33:34;7.70;;;3.30;;
68583;SDS011;55557;49.220;11.150;2022-10-17T13:36:03;6.23;;;3.37;;
68583;SDS011;55557;49.220;11.150;2022-10-17T13:38:30;9.10;;;3.10;;
68583;SDS011;55557;49.220;11.150;2022-10-17T13:40:56;4.83;;;3.30;;
68583;SDS011;55557;49.220;11.150;2022-10-17T13:43:23;4.90;;;3.23;;
68583;SDS011;55557;49.220;11.150;2022-10-17T13:45:53;8.93;;;4.00;;
68583;SDS011;55557;49.220;11.150;2022-10-17T13:48:43;4.37;;;3.37;;
68583;SDS011;55557;49.220;11.150;2022-10-17T13:51:09;5.47;;;3.17;;
68583;SDS011;55557;49.220;11.150;2022-10-17T13:53:37;4.33;;;2.93;;
68583;SDS011;55557;49.220;11.150;2022-10-17T13:58:47;3.63;;;2.90;;
68583;SDS011;55557;49.220;11.150;2022-10-17T14:01:15;4.17;;;2.90;;
68583;SDS011;55557;49.220;11.150;2022-10-17T14:03:44;3.70;;;2.80;;
68583;SDS011;55557;49.220;11.150;2022-10-17T14:06:15;7.33;;;3.23;;
68583;SDS011;55557;49.220;11.150;2022-10-17T14:08:47;7.97;;;2.80;;
68583;SDS011;55557;49.220;11.150;2022-10-17T14:11:21;5.30;;;3.13;;
68583;SDS011;55557;49.220;11.150;2022-10-17T14:13:47;3.70;;;2.83;;
68583;SDS011;55557;49.220;11.150;2022-10-17T14:16:14;4.53;;;2.33;;
68583;SDS011;55557;49.220;11.150;2022-10-17T14:18:40;6.93;;;3.30;;
68583;SDS011;55557;49.220;11.150;2022-10-17T14:24:29;4.43;;;2.80;;
68583;SDS011;55557;49.220;11.150;2022-10-17T14:26:56;2.90;;;2.50;;
68583;SDS011;55557;49.220;11.150;2022-10-17T14:29:24;2.53;;;2.10;;
68583;SDS011;55557;49.220;11.150;2022-10-17T14:32:01;5.63;;;2.83;;
68583;SDS011;55557;49.220;11.150;2022-10-17T14:34:38;6.83;;;2.70;;
68583;SDS011;55557;49.220;11.150;2022-10-17T14:37:08;5.27;;;2.30;;
68583;SDS011;55557;49.220;11.150;2022-10-17T14:39:35;5.23;;;2.27;;
68583;SDS011;55557;49.220;11.150;2022-10-17T14:42:02;3.30;;;2.23;;
68583;SDS011;55557;49.220;11.150;2022-10-17T14:44:29;4.83;;;2.53;;
68583;SDS011;55557;49.220;11.150;2022-10-17T14:46:58;4.67;;;2.63;;
68583;SDS011;55557;49.220;11.150;2022-10-17T14:54:36;2.93;;;2.37;;
68583;SDS011;55557;49.220;11.150;2022-10-17T14:57:23;3.37;;;2.83;;
68583;SDS011;55557;49.220;11.150;2022-10-17T14:59:48;6.93;;;3.00;;
68583;SDS011;55557;49.220;11.150;2022-10-17T15:02:14;6.43;;;2.23;;
68583;SDS011;55557;49.220;11.150;2022-10-17T15:04:41;5.43;;;2.33;;
68583;SDS011;55557;49.220;11.150;2022-10-17T15:07:09;2.80;;;2.43;;
68583;SDS011;55557;49.220;11.150;2022-10-17T15:09:37;3.73;;;2.60;;
68583;SDS011;55557;49.220;11.150;2022-10-17T15:12:05;7.27;;;2.60;;
68583;SDS011;55557;49.220;11.150;2022-10-17T15:14:32;4.70;;;2.23;;
68583;SDS011;55557;49.220;11.150;2022-10-17T15:20:02;3.70;;;2.40;;
68583;SDS011;55557;49.220;11.150;2022-10-17T15:22:28;5.70;;;2.40;;
68583;SDS011;55557;49.220;11.150;2022-10-17T15:24:58;5.00;;;2.40;;
68583;SDS011;55557;49.220;11.150;2022-10-17T15:27:24;4.87;;;2.03;;
68583;SDS011;55557;49.220;11.150;2022-10-17T15:29:51;3.43;;;2.20;;
68583;SDS011;55557;49.220;11.150;2022-10-17T15:32:17;6.30;;;2.37;;
68583;SDS011;55557;49.220;11.150;2022-10-17T15:34:43;2.93;;;2.23;;
68583;SDS011;55557;49.220;11.150;2022-10-17T15:37:19;4.20;;;2.30;;
68583;SDS011;55557;49.220;11.150;2022-10-17T15:39:49;4.10;;;2.23;;
68583;SDS011;55557;49.220;11.150;2022-10-17T15:42:27;2.67;;;2.27;;
68583;SDS011;55557;49.220;11.150;2022-10-17T15:44:54;5.33;;;2.50;;
68583;SDS011;55557;49.220;11.150;2022-10-17T15:49:46;4.43;;;2.20;;
68583;SDS011;55557;49.220;11.150;2022-10-17T15:52:12;7.93;;;2.37;;
68583;SDS011;55557;49.220;11.150;2022-10-17T15:54:38;3.03;;;2.53;;
68583;SDS011;55557;49.220;11.150;2022-10-17T15:57:04;8.70;;;3.00;;
68583;SDS011;55557;49.220;11.150;2022-10-17T15:59:31;3.87;;;2.00;;
68583;SDS011;55557;49.220;11.150;2022-10-17T16:01:58;5.53;;;2.37;;
68583;SDS011;55557;49.220;11.150;2022-10-17T16:04:33;10.40;;;2.53;;
68583;SDS011;55557;49.220;11.150;2022-10-17T16:06:59;5.57;;;2.70;;
68583;SDS011;55557;49.220;11.150;2022-10-17T16:09:25;5.87;;;2.33;;
68583;SDS011;55557;49.220;11.150;2022-10-17T16:11:57;6.23;;;2.37;;
68583;SDS011;55557;49.220;11.150;2022-10-17T16:14:23;3.87;;;2.27;;
68583;SDS011;55557;49.220;11.150;2022-10-17T16:16:49;9.67;;;2.70;;
68583;SDS011;55557;49.220;11.150;2022-10-17T16:19:15;4.73;;;2.20;;
68583;SDS011;55557;49.220;11.150;2022-10-17T16:21:41;11.10;;;2.87;;
68583;SDS011;55557;49.220;11.150;2022-10-17T16:24:10;5.20;;;2.60;;
68583;SDS011;55557;49.220;11.150;2022-10-17T16:26:39;6.90;;;2.20;;
68583;SDS011;55557;49.220;11.150;2022-10-17T16:29:05;6.33;;;2.77;;
68583;SDS011;55557;49.220;11.150;2022-10-17T16:31:33;4.03;;;2.50;;
68583;SDS011;55557;49.220;11.150;2022-10-17T16:34:00;3.93;;;2.63;;
68583;SDS011;55557;49.220;11.150;2022-10-17T16:36:26;9.27;;;2.50;;
68583;SDS011;55557;49.220;11.150;2022-10-17T16:39:11;4.53;;;2.23;;
68583;SDS011;55557;49.220;11.150;2022-10-17T16:41:38;5.33;;;2.43;;
68583;SDS011;55557;49.220;11.150;2022-10-17T16:44:05;9.60;;;2.90;;
68583;SDS011;55557;49.220;11.150;2022-10-17T16:46:32;6.87;;;2.80;;
68583;SDS011;55557;49.220;11.150;2022-10-17T16:48:58;4.20;;;2.33;;